Time;durP1;ratioP1;P1;durP2;ratioP2;P2;SDS_P1;SDS_P2;PMS_P1;PMS_P2;Temp;Humidity;BMP_temperature;BMP_pressure;BME280_temperature;BME280_humidity;BME280_pressure;Samples;Min_cycle;Max_cycle;Signal;HPM_P1;HPM_P2
2022/11/20 00:00:34;;;;;;;82.93;29.67;;;;;;;;;;5035594;28;20443;-86
2022/11/20 00:03:00;;;;;;;77.73;29.23;;;;;;;;;;5035461;28;20057;-86
2022/11/20 00:05:25;;;;;;;83.37;28.73;;;;;;;;;;5034399;28;20354;-85
2022/11/20 00:07:50;;;;;;;76.93;30.27;;;;;;;;;;5034207;28;20121;-84
2022/11/20 00:10:16;;;;;;;83.57;29.47;;;;;;;;;;5033554;28;20057;-85
2022/11/20 00:12:41;;;;;;;83.87;29.17;;;;;;;;;;5035964;28;20033;-86
2022/11/20 00:15:08;;;;;;;76.57;30.53;;;;;;;;;;5033821;28;20040;-84
2022/11/20 00:17:33;;;;;;;87.83;30.37;;;;;;;;;;5034431;28;20067;-85
2022/11/20 00:19:59;;;;;;;79.57;30.30;;;;;;;;;;5036023;28;20033;-85
2022/11/20 00:22:24;;;;;;;73.07;28.23;;;;;;;;;;5034431;28;20096;-84
2022/11/20 00:24:50;;;;;;;77.67;29.53;;;;;;;;;;5034056;28;20040;-85
2022/11/20 00:27:15;;;;;;;88.47;27.90;;;;;;;;;;5034982;28;20128;-86
2022/11/20 00:29:41;;;;;;;78.10;29.93;;;;;;;;;;5036040;28;20242;-84
2022/11/20 00:32:07;;;;;;;75.30;29.60;;;;;;;;;;5035665;28;20052;-85
2022/11/20 00:34:34;;;;;;;77.20;29.67;;;;;;;;;;5035439;28;20517;-85
2022/11/20 00:37:00;;;;;;;85.43;29.87;;;;;;;;;;5035234;28;20421;-86
2022/11/20 00:39:25;;;;;;;87.97;30.47;;;;;;;;;;5051339;28;20025;-85
2022/11/20 00:41:50;;;;;;;78.33;28.23;;;;;;;;;;5033872;28;20114;-86
2022/11/20 00:44:16;;;;;;;76.97;26.77;;;;;;;;;;5034835;28;20378;-86
2022/11/20 00:46:41;;;;;;;81.23;28.60;;;;;;;;;;5033924;28;20036;-84
2022/11/20 00:49:07;;;;;;;78.83;28.33;;;;;;;;;;5050389;28;20294;-85
2022/11/20 00:51:32;;;;;;;78.93;28.27;;;;;;;;;;5034676;28;20033;-85
2022/11/20 00:53:59;;;;;;;72.53;28.53;;;;;;;;;;5036307;28;20053;-85
2022/11/20 00:56:25;;;;;;;82.77;30.33;;;;;;;;;;5034029;28;20040;-86
2022/11/20 00:58:51;;;;;;;79.90;28.60;;;;;;;;;;5034979;28;20029;-85
2022/11/20 01:01:25;;;;;;;88.23;29.00;;;;;;;;;;5033885;28;20108;-85
2022/11/20 01:03:53;;;;;;;84.20;28.13;;;;;;;;;;5035033;28;20057;-85
2022/11/20 01:06:21;;;;;;;88.00;30.37;;;;;;;;;;5033497;28;20057;-85
2022/11/20 01:08:46;;;;;;;74.23;29.70;;;;;;;;;;5033202;28;20040;-85
2022/11/20 01:11:18;;;;;;;81.87;28.83;;;;;;;;;;5034416;28;20366;-86
2022/11/20 01:13:45;;;;;;;74.90;26.87;;;;;;;;;;5033614;28;20047;-85
2022/11/20 01:16:16;;;;;;;90.83;30.33;;;;;;;;;;5033214;28;20742;-85
2022/11/20 01:18:44;;;;;;;70.75;28.75;;;;;;;;;;5050054;28;20040;-84
2022/11/20 01:21:20;;;;;;;82.03;28.97;;;;;;;;;;5032813;28;20401;-85
2022/11/20 01:23:47;;;;;;;72.57;25.40;;;;;;;;;;5035346;28;20029;-85
2022/11/20 01:26:14;;;;;;;76.67;27.60;;;;;;;;;;5033437;28;20028;-86
2022/11/20 01:28:40;;;;;;;84.17;29.67;;;;;;;;;;5032577;28;20021;-85
2022/11/20 01:31:20;;;;;;;71.60;26.73;;;;;;;;;;5034035;28;20025;-86
2022/11/20 01:33:48;;;;;;;73.63;26.73;;;;;;;;;;5035314;28;20452;-86
2022/11/20 01:36:14;;;;;;;75.30;25.50;;;;;;;;;;5049976;28;20485;-84
2022/11/20 01:38:41;;;;;;;76.40;25.93;;;;;;;;;;5049458;28;20051;-85
2022/11/20 01:41:07;;;;;;;69.50;26.10;;;;;;;;;;5031278;28;20053;-85
2022/11/20 01:43:34;;;;;;;69.13;26.93;;;;;;;;;;5034467;28;20021;-85
2022/11/20 01:46:09;;;;;;;75.07;29.13;;;;;;;;;;5032625;28;20032;-84
2022/11/20 01:48:44;;;;;;;72.43;26.03;;;;;;;;;;5033195;28;20025;-86
2022/11/20 01:51:21;;;;;;;70.37;25.97;;;;;;;;;;5033105;28;20478;-85
2022/11/20 01:53:48;;;;;;;81.83;27.90;;;;;;;;;;5032773;28;20025;-84
2022/11/20 01:56:14;;;;;;;71.20;25.50;;;;;;;;;;5033274;28;20449;-84
2022/11/20 01:58:55;;;;;;;76.20;26.90;;;;;;;;;;5035019;28;20083;-85
2022/11/20 02:01:21;;;;;;;70.33;25.90;;;;;;;;;;5033281;28;20048;-86
2022/11/20 02:03:48;;;;;;;74.30;27.13;;;;;;;;;;5036130;28;20389;-85
2022/11/20 02:06:25;;;;;;;74.53;25.93;;;;;;;;;;5035651;28;20083;-86
2022/11/20 02:08:52;;;;;;;71.43;26.60;;;;;;;;;;5034343;28;20229;-85
2022/11/20 02:11:17;;;;;;;67.57;25.63;;;;;;;;;;5032566;28;20041;-84
2022/11/20 02:13:43;;;;;;;78.00;28.07;;;;;;;;;;5033300;28;20413;-85
2022/11/20 02:16:40;;;;;;;73.17;28.13;;;;;;;;;;5033515;28;20483;-85
2022/11/20 02:19:12;;;;;;;74.77;26.30;;;;;;;;;;5033597;28;20026;-86
2022/11/20 02:21:46;;;;;;;71.60;24.95;;;;;;;;;;5033971;28;20052;-85
2022/11/20 02:24:19;;;;;;;71.07;26.60;;;;;;;;;;5032534;28;20030;-86
2022/11/20 02:27:14;;;;;;;74.80;26.50;;;;;;;;;;5033482;28;20033;-84
2022/11/20 02:29:51;;;;;;;71.47;23.93;;;;;;;;;;5034022;28;20468;-85
2022/11/20 02:32:27;;;;;;;64.33;23.07;;;;;;;;;;5031934;28;20311;-84
2022/11/20 02:34:53;;;;;;;65.50;23.70;;;;;;;;;;5032491;28;20051;-86
2022/11/20 02:37:20;;;;;;;65.73;24.90;;;;;;;;;;5034159;28;20485;-85
2022/11/20 02:39:48;;;;;;;67.60;23.07;;;;;;;;;;5032953;28;20108;-86
2022/11/20 02:42:14;;;;;;;74.90;25.13;;;;;;;;;;5033940;28;20493;-85
2022/11/20 02:44:40;;;;;;;64.97;22.83;;;;;;;;;;5033188;28;20361;-85
2022/11/20 02:47:05;;;;;;;73.10;26.40;;;;;;;;;;5034379;28;20029;-85
2022/11/20 02:49:31;;;;;;;65.27;23.77;;;;;;;;;;5033730;28;20401;-85
2022/11/20 02:51:56;;;;;;;62.00;22.43;;;;;;;;;;5033337;28;20033;-84
2022/11/20 02:54:23;;;;;;;57.77;22.47;;;;;;;;;;5031603;28;20489;-85
2022/11/20 02:56:49;;;;;;;67.03;26.03;;;;;;;;;;5033273;28;20393;-85
2022/11/20 02:59:14;;;;;;;76.23;26.90;;;;;;;;;;5034428;28;20036;-84
2022/11/20 03:01:40;;;;;;;64.87;24.87;;;;;;;;;;5039511;28;20029;-84
2022/11/20 03:04:05;;;;;;;75.80;26.40;;;;;;;;;;5039747;28;20021;-84
2022/11/20 03:06:31;;;;;;;73.77;24.40;;;;;;;;;;5037759;28;20025;-85
2022/11/20 03:08:57;;;;;;;64.33;25.00;;;;;;;;;;5039766;28;20037;-84
2022/11/20 03:11:23;;;;;;;67.63;24.07;;;;;;;;;;5038364;28;20030;-85
2022/11/20 03:13:48;;;;;;;64.07;23.50;;;;;;;;;;5039965;28;20034;-84
2022/11/20 03:16:18;;;;;;;65.67;22.27;;;;;;;;;;5039424;28;20168;-84
2022/11/20 03:18:43;;;;;;;80.07;24.53;;;;;;;;;;5037518;28;20106;-85
2022/11/20 03:21:11;;;;;;;58.70;22.77;;;;;;;;;;5039609;28;20056;-85
2022/11/20 03:23:37;;;;;;;62.47;24.13;;;;;;;;;;5040002;28;20029;-85
2022/11/20 03:26:17;;;;;;;64.30;25.37;;;;;;;;;;5038468;28;20051;-85
2022/11/20 03:28:50;;;;;;;57.57;23.37;;;;;;;;;;5037973;28;20068;-85
2022/11/20 03:31:18;;;;;;;75.97;23.47;;;;;;;;;;5037697;28;20399;-85
2022/11/20 03:33:44;;;;;;;69.43;21.97;;;;;;;;;;5037148;28;20021;-85
2022/11/20 03:36:12;;;;;;;67.10;23.10;;;;;;;;;;5037145;28;20365;-84
2022/11/20 03:38:38;;;;;;;52.60;19.77;;;;;;;;;;5039037;28;20536;-85
2022/11/20 03:41:09;;;;;;;60.00;21.33;;;;;;;;;;5037399;28;20099;-85
2022/11/20 03:43:35;;;;;;;65.97;23.27;;;;;;;;;;5038275;28;20242;-85
2022/11/20 03:46:01;;;;;;;68.17;23.03;;;;;;;;;;5036872;28;20132;-82
2022/11/20 03:48:27;;;;;;;62.10;21.93;;;;;;;;;;5037948;28;20029;-85
2022/11/20 03:51:09;;;;;;;61.43;22.33;;;;;;;;;;5038763;28;20057;-85
2022/11/20 03:53:35;;;;;;;52.33;20.40;;;;;;;;;;5036844;28;20257;-84
2022/11/20 03:56:00;;;;;;;51.90;20.00;;;;;;;;;;5037167;28;20068;-84
2022/11/20 03:58:26;;;;;;;57.13;20.10;;;;;;;;;;5037164;28;20033;-85
2022/11/20 04:00:51;;;;;;;52.60;19.23;;;;;;;;;;5037217;28;20033;-85
2022/11/20 04:03:17;;;;;;;51.63;19.27;;;;;;;;;;5036795;28;20435;-86
2022/11/20 04:05:42;;;;;;;50.73;18.63;;;;;;;;;;5037658;28;20091;-85
2022/11/20 04:08:08;;;;;;;53.00;18.77;;;;;;;;;;5037230;28;20025;-85
2022/11/20 04:10:33;;;;;;;56.17;20.77;;;;;;;;;;5035815;28;20024;-85
2022/11/20 04:12:59;;;;;;;60.17;19.83;;;;;;;;;;5033787;28;20031;-86
2022/11/20 04:15:24;;;;;;;53.27;19.37;;;;;;;;;;5034334;28;20021;-86
2022/11/20 04:17:50;;;;;;;52.90;20.50;;;;;;;;;;5036260;28;20029;-85
2022/11/20 04:20:15;;;;;;;60.10;21.00;;;;;;;;;;5033971;28;20108;-86
2022/11/20 04:22:41;;;;;;;72.37;26.10;;;;;;;;;;5033676;28;20029;-85
2022/11/20 04:25:07;;;;;;;67.90;24.97;;;;;;;;;;5033461;28;20028;-85
2022/11/20 04:27:32;;;;;;;60.93;25.70;;;;;;;;;;5034128;28;20025;-86
2022/11/20 04:29:57;;;;;;;74.63;27.30;;;;;;;;;;5033539;28;20022;-84
2022/11/20 04:32:23;;;;;;;71.43;24.37;;;;;;;;;;5035311;28;20033;-85
2022/11/20 04:34:48;;;;;;;68.17;26.27;;;;;;;;;;5035051;28;20412;-86
2022/11/20 04:37:14;;;;;;;70.77;26.50;;;;;;;;;;5033304;28;20093;-86
2022/11/20 04:39:39;;;;;;;63.83;27.20;;;;;;;;;;5035000;28;20124;-87
2022/11/20 04:44:49;;;;;;;74.00;27.67;;;;;;;;;;5035754;28;20048;-85
2022/11/20 04:47:14;;;;;;;65.50;27.37;;;;;;;;;;5033592;28;20037;-85
2022/11/20 04:49:40;;;;;;;58.03;27.23;;;;;;;;;;5034178;28;20030;-85
2022/11/20 04:52:05;;;;;;;74.27;27.00;;;;;;;;;;5034563;28;20030;-85
2022/11/20 04:54:31;;;;;;;62.83;24.27;;;;;;;;;;5034060;28;20470;-85
2022/11/20 04:56:56;;;;;;;71.27;28.90;;;;;;;;;;5035560;28;20033;-87
2022/11/20 04:59:22;;;;;;;68.17;24.70;;;;;;;;;;5035808;28;20064;-86
2022/11/20 05:01:48;;;;;;;76.37;27.43;;;;;;;;;;5034057;28;20033;-85
2022/11/20 05:04:13;;;;;;;79.00;26.70;;;;;;;;;;5034823;28;20037;-85
2022/11/20 05:06:39;;;;;;;68.57;27.20;;;;;;;;;;5032960;28;20059;-85
2022/11/20 05:09:04;;;;;;;63.13;26.27;;;;;;;;;;5033000;28;20416;-85
2022/11/20 05:11:31;;;;;;;61.10;24.50;;;;;;;;;;5034689;28;20026;-86
2022/11/20 05:13:59;;;;;;;70.50;26.87;;;;;;;;;;5033222;28;20044;-85
2022/11/20 05:16:25;;;;;;;70.43;25.30;;;;;;;;;;5034014;28;20039;-87
2022/11/20 05:18:52;;;;;;;70.60;27.37;;;;;;;;;;5033601;28;20029;-86
2022/11/20 05:21:18;;;;;;;64.47;25.73;;;;;;;;;;5033674;28;20025;-86
2022/11/20 05:23:45;;;;;;;82.50;32.73;;;;;;;;;;5033140;28;20025;-85
2022/11/20 05:26:16;;;;;;;71.20;28.87;;;;;;;;;;5030277;28;20034;-85
2022/11/20 05:28:42;;;;;;;69.33;27.03;;;;;;;;;;5014888;28;20330;-84
2022/11/20 05:31:16;;;;;;;70.10;28.83;;;;;;;;;;5014211;28;20085;-86
2022/11/20 05:33:43;;;;;;;61.70;26.27;;;;;;;;;;5014102;28;20030;-85
2022/11/20 05:36:10;;;;;;;69.37;26.90;;;;;;;;;;5014342;28;20032;-86
2022/11/20 05:38:35;;;;;;;70.83;27.37;;;;;;;;;;5013410;28;20108;-85
2022/11/20 05:41:13;;;;;;;75.93;26.17;;;;;;;;;;5013566;28;20133;-85
2022/11/20 05:43:40;;;;;;;63.97;26.00;;;;;;;;;;5013207;28;20030;-83
2022/11/20 05:46:07;;;;;;;76.90;26.97;;;;;;;;;;5013214;28;20095;-85
2022/11/20 05:48:34;;;;;;;69.73;28.70;;;;;;;;;;5014342;28;20116;-86
2022/11/20 05:51:01;;;;;;;63.03;24.23;;;;;;;;;;5014475;28;20029;-85
2022/11/20 05:53:27;;;;;;;59.07;25.27;;;;;;;;;;5014568;28;20417;-85
2022/11/20 05:56:13;;;;;;;68.63;26.37;;;;;;;;;;5014993;28;20040;-85
2022/11/20 05:58:40;;;;;;;74.00;26.10;;;;;;;;;;5014406;28;20065;-85
2022/11/20 06:01:11;;;;;;;67.17;25.20;;;;;;;;;;5030158;28;20040;-85
2022/11/20 06:03:37;;;;;;;61.33;23.90;;;;;;;;;;5014902;28;20029;-86
2022/11/20 06:06:04;;;;;;;71.37;26.50;;;;;;;;;;5013604;28;20092;-86
2022/11/20 06:08:30;;;;;;;72.40;27.50;;;;;;;;;;5014446;28;20041;-85
2022/11/20 06:10:56;;;;;;;68.83;27.47;;;;;;;;;;5013947;28;20034;-84
2022/11/20 06:13:21;;;;;;;71.50;26.63;;;;;;;;;;5013235;28;20018;-85
2022/11/20 06:15:53;;;;;;;73.93;27.83;;;;;;;;;;5012761;28;20195;-84
2022/11/20 06:18:19;;;;;;;;;;;;;;;;;;5013819;28;20030;-86
2022/11/20 06:20:45;;;;;;;69.07;26.13;;;;;;;;;;5014379;28;19909;-86
2022/11/20 06:23:11;;;;;;;80.60;28.93;;;;;;;;;;5029873;28;20028;-85
2022/11/20 06:25:41;;;;;;;69.93;25.97;;;;;;;;;;5017157;28;20022;-85
2022/11/20 06:28:07;;;;;;;71.50;28.10;;;;;;;;;;5033994;28;20049;-85
2022/11/20 06:30:33;;;;;;;77.37;27.07;;;;;;;;;;5034386;28;20380;-86
2022/11/20 06:32:58;;;;;;;72.30;28.00;;;;;;;;;;5033645;28;20033;-85
2022/11/20 06:35:24;;;;;;;69.33;27.40;;;;;;;;;;5031528;28;20032;-85
2022/11/20 06:37:49;;;;;;;71.17;27.47;;;;;;;;;;5031630;28;20102;-86
2022/11/20 06:40:15;;;;;;;80.07;29.50;;;;;;;;;;5033223;28;20040;-86
2022/11/20 06:42:40;;;;;;;67.10;27.20;;;;;;;;;;5031860;28;20144;-87
2022/11/20 06:45:06;;;;;;;69.50;25.97;;;;;;;;;;5032022;28;20036;-85
2022/11/20 06:47:32;;;;;;;77.87;25.23;;;;;;;;;;5033355;28;20470;-84
2022/11/20 06:49:57;;;;;;;70.47;26.70;;;;;;;;;;5032380;28;20029;-85
2022/11/20 06:52:23;;;;;;;73.07;26.73;;;;;;;;;;5033280;28;20474;-86
2022/11/20 06:54:48;;;;;;;72.13;28.47;;;;;;;;;;5034639;28;20445;-85
2022/11/20 06:57:14;;;;;;;76.37;26.97;;;;;;;;;;5032221;28;20358;-86
2022/11/20 06:59:39;;;;;;;68.70;26.23;;;;;;;;;;5032192;28;20108;-86
2022/11/20 07:02:05;;;;;;;70.93;26.63;;;;;;;;;;5030928;28;20026;-86
2022/11/20 07:04:30;;;;;;;67.80;27.00;;;;;;;;;;5032339;28;20051;-86
2022/11/20 07:06:55;;;;;;;79.23;27.47;;;;;;;;;;5033604;28;20470;-85
2022/11/20 07:09:21;;;;;;;75.83;27.17;;;;;;;;;;5032011;28;20029;-86
2022/11/20 07:11:46;;;;;;;66.53;26.10;;;;;;;;;;5031233;28;20076;-85
2022/11/20 07:14:13;;;;;;;68.20;25.83;;;;;;;;;;5031446;28;20034;-85
2022/11/20 07:16:39;;;;;;;60.37;24.03;;;;;;;;;;5033129;28;20032;-86
2022/11/20 07:19:05;;;;;;;67.50;26.20;;;;;;;;;;5031948;28;20025;-86
2022/11/20 07:21:30;;;;;;;64.13;25.80;;;;;;;;;;5032561;28;20505;-85
2022/11/20 07:23:55;;;;;;;79.87;31.60;;;;;;;;;;5030897;28;20021;-85
2022/11/20 07:26:21;;;;;;;72.17;26.70;;;;;;;;;;5033659;28;20080;-88
2022/11/20 07:28:46;;;;;;;57.40;24.07;;;;;;;;;;5034551;28;20525;-85
2022/11/20 07:31:12;;;;;;;64.33;25.53;;;;;;;;;;5032508;28;20045;-85
2022/11/20 07:33:38;;;;;;;63.67;25.23;;;;;;;;;;5030679;28;20028;-85
2022/11/20 07:36:04;;;;;;;64.40;25.00;;;;;;;;;;5030649;28;20120;-85
2022/11/20 07:38:30;;;;;;;58.30;23.23;;;;;;;;;;5031546;28;20017;-86
2022/11/20 07:40:57;;;;;;;49.87;22.13;;;;;;;;;;5039103;28;20053;-85
2022/11/20 07:43:23;;;;;;;53.33;22.30;;;;;;;;;;5037407;28;20109;-85
2022/11/20 07:45:49;;;;;;;52.33;20.30;;;;;;;;;;5033662;28;20469;-86
2022/11/20 07:48:14;;;;;;;46.47;19.40;;;;;;;;;;5037065;28;20037;-86
2022/11/20 07:50:40;;;;;;;53.07;18.83;;;;;;;;;;5036923;28;20022;-85
2022/11/20 07:53:06;;;;;;;58.83;21.20;;;;;;;;;;5037327;28;20045;-86
2022/11/20 07:55:31;;;;;;;51.63;20.17;;;;;;;;;;5035945;28;20139;-86
2022/11/20 07:57:57;;;;;;;51.30;20.00;;;;;;;;;;5035285;28;20033;-85
2022/11/20 08:00:23;;;;;;;53.60;21.67;;;;;;;;;;5035361;28;20025;-87
2022/11/20 08:02:48;;;;;;;63.37;22.23;;;;;;;;;;5036752;28;20035;-83
2022/11/20 08:05:14;;;;;;;64.67;32.00;;;;;;;;;;5036106;28;20025;-86
2022/11/20 08:07:42;;;;;;;56.97;23.03;;;;;;;;;;5037158;28;20029;-86
2022/11/20 08:10:09;;;;;;;57.33;22.57;;;;;;;;;;5035938;28;20406;-86
2022/11/20 08:15:19;;;;;;;57.67;24.13;;;;;;;;;;5035407;28;20059;-86
2022/11/20 08:17:45;;;;;;;57.97;23.30;;;;;;;;;;5034507;28;20098;-88
2022/11/20 08:20:10;;;;;;;68.67;23.53;;;;;;;;;;5033619;28;20429;-85
2022/11/20 08:22:36;;;;;;;57.43;22.57;;;;;;;;;;5035818;28;20374;-86
2022/11/20 08:25:01;;;;;;;62.73;25.03;;;;;;;;;;5034708;28;20028;-87
2022/11/20 08:27:27;;;;;;;58.47;24.27;;;;;;;;;;5034529;28;20080;-87
2022/11/20 08:29:53;;;;;;;65.07;24.13;;;;;;;;;;5036760;28;20493;-85
2022/11/20 08:32:19;;;;;;;57.30;23.57;;;;;;;;;;5037715;28;20103;-86
2022/11/20 08:34:44;;;;;;;61.13;24.27;;;;;;;;;;5037346;28;20504;-87
2022/11/20 08:37:09;;;;;;;63.43;24.50;;;;;;;;;;5039307;28;20033;-86
2022/11/20 08:39:35;;;;;;;59.90;22.70;;;;;;;;;;5041036;28;20393;-86
2022/11/20 08:42:00;;;;;;;54.33;21.90;;;;;;;;;;5039751;28;20156;-86
2022/11/20 08:44:26;;;;;;;59.67;24.20;;;;;;;;;;5037804;28;20026;-86
2022/11/20 08:46:51;;;;;;;61.87;24.53;;;;;;;;;;5034550;28;20094;-87
2022/11/20 08:49:17;;;;;;;57.10;21.80;;;;;;;;;;5036405;28;20041;-85
2022/11/20 08:51:43;;;;;;;64.93;24.87;;;;;;;;;;5035647;28;20029;-85
2022/11/20 08:54:09;;;;;;;60.87;24.33;;;;;;;;;;5033272;28;20033;-86
2022/11/20 08:56:35;;;;;;;58.00;23.37;;;;;;;;;;5032907;28;20098;-87
2022/11/20 08:59:00;;;;;;;59.30;24.00;;;;;;;;;;5033372;28;20033;-85
2022/11/20 09:01:27;;;;;;;58.50;23.73;;;;;;;;;;5033472;28;20029;-85
2022/11/20 09:03:54;;;;;;;57.80;21.70;;;;;;;;;;5034307;28;20029;-87
2022/11/20 09:06:20;;;;;;;54.03;21.43;;;;;;;;;;5033765;28;20040;-86
2022/11/20 09:08:45;;;;;;;49.13;23.67;;;;;;;;;;5036471;28;20068;-85
2022/11/20 09:11:11;;;;;;;63.83;23.53;;;;;;;;;;5036397;28;20120;-85
2022/11/20 09:13:37;;;;;;;65.67;23.87;;;;;;;;;;5034442;28;20045;-86
2022/11/20 09:16:06;;;;;;;56.67;22.37;;;;;;;;;;5032745;28;20117;-86
2022/11/20 09:18:32;;;;;;;55.43;23.93;;;;;;;;;;5032883;28;20022;-86
2022/11/20 09:21:00;;;;;;;65.50;23.90;;;;;;;;;;5032851;28;20397;-86
2022/11/20 09:23:26;;;;;;;58.33;23.20;;;;;;;;;;5032724;28;20080;-86
2022/11/20 09:25:52;;;;;;;60.97;24.23;;;;;;;;;;5034508;28;20052;-87
2022/11/20 09:28:18;;;;;;;59.47;24.23;;;;;;;;;;5034336;28;20108;-85
2022/11/20 09:30:44;;;;;;;59.80;23.20;;;;;;;;;;5050227;28;20033;-88
2022/11/20 09:33:10;;;;;;;58.60;24.17;;;;;;;;;;5033784;28;20060;-87
2022/11/20 09:35:35;;;;;;;66.57;24.70;;;;;;;;;;5034099;28;20694;-86
2022/11/20 09:38:06;;;;;;;61.10;25.40;;;;;;;;;;5034164;28;20030;-86
2022/11/20 09:40:32;;;;;;;63.17;24.43;;;;;;;;;;5034561;28;20030;-86
2022/11/20 09:43:21;;;;;;;56.27;23.87;;;;;;;;;;5034385;28;20063;-85
2022/11/20 09:46:07;;;;;;;70.60;28.33;;;;;;;;;;5036979;28;20079;-85
2022/11/20 09:48:51;;;;;;;60.60;24.70;;;;;;;;;;5035014;28;20128;-85
2022/11/20 09:51:44;;;;;;;66.53;23.90;;;;;;;;;;5033652;28;20028;-85
2022/11/20 09:54:19;;;;;;;;;;;;;;;;;;5035129;28;20038;-87
2022/11/20 09:56:53;;;;;;;59.90;24.77;;;;;;;;;;5036506;28;19916;-85
2022/11/20 09:59:39;;;;;;;59.20;24.97;;;;;;;;;;5032978;28;20064;-87
2022/11/20 10:02:30;;;;;;;66.93;26.27;;;;;;;;;;5033843;28;20025;-86
2022/11/20 10:05:22;;;;;;;62.10;23.83;;;;;;;;;;5030334;28;20710;-86
2022/11/20 10:07:56;;;;;;;59.27;25.10;;;;;;;;;;5031915;28;20389;-86
2022/11/20 10:10:38;;;;;;;68.17;26.37;;;;;;;;;;5031513;28;20389;-86
2022/11/20 10:13:23;;;;;;;69.65;26.98;;;;;;;;;;5033161;28;20473;-79
2022/11/20 10:16:05;;;;;;;64.07;26.27;;;;;;;;;;5047051;28;20089;-81
2022/11/20 10:18:40;;;;;;;64.82;26.20;;;;;;;;;;5030010;28;20075;-81
2022/11/20 10:21:11;;;;;;;66.60;26.90;;;;;;;;;;5031902;28;20452;-84
2022/11/20 10:23:55;;;;;;;69.00;27.05;;;;;;;;;;5031211;28;20036;-86
2022/11/20 10:26:52;;;;;;;70.17;26.17;;;;;;;;;;5027084;28;20065;-85
2022/11/20 10:29:36;;;;;;;68.00;26.93;;;;;;;;;;5010739;28;20026;-85
2022/11/20 10:32:04;;;;;;;63.23;25.33;;;;;;;;;;5014257;28;20018;-84
2022/11/20 10:35:02;;;;;;;67.23;26.37;;;;;;;;;;5009136;28;20124;-86
2022/11/20 10:37:31;;;;;;;74.17;28.87;;;;;;;;;;5028447;28;20025;-86
2022/11/20 10:40:24;;;;;;;64.27;27.03;;;;;;;;;;5048000;28;20033;-88
2022/11/20 10:43:11;;;;;;;64.50;27.37;;;;;;;;;;5048211;28;20508;-86
2022/11/20 10:45:46;;;;;;;71.03;27.20;;;;;;;;;;5032611;28;20113;-88
2022/11/20 10:48:32;;;;;;;62.23;27.90;;;;;;;;;;5047514;28;20052;-86
2022/11/20 10:51:19;;;;;;;63.67;25.40;;;;;;;;;;5048138;28;20013;-86
2022/11/20 10:54:01;;;;;;;68.77;27.13;;;;;;;;;;5047639;28;20029;-85
2022/11/20 10:56:44;;;;;;;62.25;26.60;;;;;;;;;;5048571;28;20091;-85
2022/11/20 10:59:41;;;;;;;67.10;27.33;;;;;;;;;;5030585;28;20056;-84
2022/11/20 11:02:24;;;;;;;67.43;26.50;;;;;;;;;;5046474;28;20033;-84
2022/11/20 11:04:52;;;;;;;69.57;28.93;;;;;;;;;;5047193;28;20079;-85
2022/11/20 11:07:36;;;;;;;74.37;28.60;;;;;;;;;;5048221;28;20028;-83
2022/11/20 11:10:14;;;;;;;73.63;29.00;;;;;;;;;;5046403;28;20334;-84
2022/11/20 11:12:45;;;;;;;75.23;27.90;;;;;;;;;;5032090;28;20450;-84
2022/11/20 11:15:27;;;;;;;75.00;29.63;;;;;;;;;;5048249;28;20521;-84
2022/11/20 11:17:53;;;;;;;68.97;28.88;;;;;;;;;;5032452;28;20025;-84
2022/11/20 11:20:22;;;;;;;70.90;28.77;;;;;;;;;;5047487;28;20040;-78
2022/11/20 11:22:49;;;;;;;75.57;28.90;;;;;;;;;;5036011;28;20022;-83
2022/11/20 11:25:35;;;;;;;81.57;31.10;;;;;;;;;;5050633;28;20478;-83
2022/11/20 11:28:21;;;;;;;66.93;28.30;;;;;;;;;;5036523;28;20071;-84
2022/11/20 11:30:49;;;;;;;66.63;28.00;;;;;;;;;;5051870;28;20217;-83
2022/11/20 11:33:29;;;;;;;75.83;29.57;;;;;;;;;;5051918;28;20021;-85
2022/11/20 11:35:58;;;;;;;73.77;28.23;;;;;;;;;;5051403;28;20114;-85
2022/11/20 11:38:38;;;;;;;66.33;28.60;;;;;;;;;;5052137;28;20025;-86
2022/11/20 11:41:06;;;;;;;70.63;29.47;;;;;;;;;;5036108;28;20396;-85
2022/11/20 11:46:32;;;;;;;69.40;27.23;;;;;;;;;;5035763;28;20044;-84
2022/11/20 11:49:02;;;;;;;72.20;29.70;;;;;;;;;;5052206;28;20033;-84
2022/11/20 11:52:14;;;;;;;64.60;27.63;;;;;;;;;;5052115;28;20029;-83
2022/11/20 11:54:50;;;;;;;70.95;28.15;;;;;;;;;;5036755;28;20034;-85
2022/11/20 11:57:37;;;;;;;71.90;27.90;;;;;;;;;;5051621;28;20068;-85
2022/11/20 12:00:06;;;;;;;77.17;31.50;;;;;;;;;;5034881;28;20125;-84
2022/11/20 12:02:44;;;;;;;65.73;27.60;;;;;;;;;;5050349;28;20084;-85
2022/11/20 12:05:24;;;;;;;65.30;27.30;;;;;;;;;;5050541;28;20112;-84
2022/11/20 12:07:53;;;;;;;71.20;27.60;;;;;;;;;;5051226;28;20035;-83
2022/11/20 12:10:53;;;;;;;67.13;29.63;;;;;;;;;;5035122;28;20021;-84
2022/11/20 12:13:34;;;;;;;66.03;28.27;;;;;;;;;;5046394;28;20050;-85
2022/11/20 12:16:01;;;;;;;82.17;29.40;;;;;;;;;;5035831;28;20021;-84
2022/11/20 12:18:28;;;;;;;70.70;29.43;;;;;;;;;;5034680;28;20102;-83
2022/11/20 12:21:12;;;;;;;74.27;29.57;;;;;;;;;;5032951;28;20034;-84
2022/11/20 12:23:52;;;;;;;72.53;29.40;;;;;;;;;;5049213;28;20030;-83
2022/11/20 12:26:41;;;;;;;71.40;27.90;;;;;;;;;;5035072;28;20021;-84
2022/11/20 12:29:32;;;;;;;64.97;28.33;;;;;;;;;;5034912;28;20048;-84
2022/11/20 12:32:16;;;;;;;69.83;27.67;;;;;;;;;;5034932;28;20029;-84
2022/11/20 12:34:47;;;;;;;72.37;29.43;;;;;;;;;;5033823;28;20476;-84
2022/11/20 12:37:36;;;;;;;65.40;25.85;;;;;;;;;;5033616;28;20030;-84
2022/11/20 12:40:22;;;;;;;71.57;25.77;;;;;;;;;;5036271;28;20394;-84
2022/11/20 12:45:52;;;;;;;78.77;31.07;;;;;;;;;;5035372;28;20036;-84
2022/11/20 12:48:41;;;;;;;69.10;28.07;;;;;;;;;;5034826;28;20025;-83
2022/11/20 12:51:23;;;;;;;69.37;28.47;;;;;;;;;;5034800;28;20030;-85
2022/11/20 12:54:26;;;;;;;68.45;28.70;;;;;;;;;;5033575;28;20026;-83
2022/11/20 12:56:57;;;;;;;68.90;29.70;;;;;;;;;;5032592;28;20084;-84
2022/11/20 12:59:37;;;;;;;76.82;30.48;;;;;;;;;;5033961;28;20045;-83
2022/11/20 13:02:11;;;;;;;67.20;28.57;;;;;;;;;;5032817;28;20033;-83
2022/11/20 13:04:36;;;;;;;75.93;33.00;;;;;;;;;;5032629;28;20041;-84
2022/11/20 13:07:11;;;;;;;66.80;29.10;;;;;;;;;;5033244;28;20486;-83
2022/11/20 13:09:49;;;;;;;83.43;31.73;;;;;;;;;;5032986;28;20358;-84
2022/11/20 13:12:27;;;;;;;68.93;29.27;;;;;;;;;;5032464;28;20021;-85
2022/11/20 13:14:58;;;;;;;79.27;32.33;;;;;;;;;;5032449;28;20094;-83
2022/11/20 13:17:36;;;;;;;71.68;27.75;;;;;;;;;;5032974;28;20489;-84
2022/11/20 13:20:05;;;;;;;72.07;29.73;;;;;;;;;;5034795;28;20027;-83
2022/11/20 13:22:54;;;;;;;73.63;28.97;;;;;;;;;;5034668;28;20100;-83
2022/11/20 13:25:22;;;;;;;93.73;33.57;;;;;;;;;;5034523;28;20025;-83
2022/11/20 13:27:49;;;;;;;68.67;29.17;;;;;;;;;;5034574;28;20104;-84
2022/11/20 13:30:18;;;;;;;70.20;29.77;;;;;;;;;;5034394;28;20129;-84
2022/11/20 13:33:00;;;;;;;67.03;28.00;;;;;;;;;;5033986;28;20021;-85
2022/11/20 13:35:29;;;;;;;79.00;31.08;;;;;;;;;;5032679;28;20116;-83
2022/11/20 13:38:04;;;;;;;70.87;31.73;;;;;;;;;;5032818;28;20112;-83
2022/11/20 13:40:29;;;;;;;76.73;30.20;;;;;;;;;;5032305;28;20477;-86
2022/11/20 13:43:21;;;;;;;69.13;28.67;;;;;;;;;;5031361;28;20276;-84
2022/11/20 13:46:06;;;;;;;72.90;29.48;;;;;;;;;;5015967;28;20499;-84
2022/11/20 13:48:38;;;;;;;75.97;28.57;;;;;;;;;;5032696;28;20073;-84
2022/11/20 13:51:31;;;;;;;72.30;28.80;;;;;;;;;;5033821;28;20064;-85
2022/11/20 13:54:13;;;;;;;69.60;27.87;;;;;;;;;;5031450;28;20472;-84
2022/11/20 13:56:57;;;;;;;71.63;26.93;;;;;;;;;;5033150;28;20029;-81
2022/11/20 13:59:46;;;;;;;70.43;29.07;;;;;;;;;;5032317;28;20029;-85
2022/11/20 14:02:17;;;;;;;68.13;28.87;;;;;;;;;;5032379;28;20557;-85
2022/11/20 14:04:46;;;;;;;72.80;30.50;;;;;;;;;;5033388;28;20486;-84
2022/11/20 14:07:12;;;;;;;76.93;30.83;;;;;;;;;;5031776;28;20033;-85
2022/11/20 14:09:38;;;;;;;72.10;30.73;;;;;;;;;;5033728;28;20049;-85
2022/11/20 14:12:13;;;;;;;72.93;28.93;;;;;;;;;;5032927;28;20385;-84
2022/11/20 14:14:48;;;;;;;79.27;28.73;;;;;;;;;;5031584;28;20512;-84
2022/11/20 14:17:30;;;;;;;73.43;30.47;;;;;;;;;;5031978;28;20036;-83
2022/11/20 14:20:00;;;;;;;67.65;29.00;;;;;;;;;;5033277;28;20026;-84
2022/11/20 14:22:27;;;;;;;76.67;31.03;;;;;;;;;;5033283;28;20496;-85
2022/11/20 14:25:06;;;;;;;74.50;31.20;;;;;;;;;;5031392;28;20406;-83
2022/11/20 14:27:40;;;;;;;69.20;30.67;;;;;;;;;;5031357;28;20026;-84
2022/11/20 14:30:14;;;;;;;68.30;30.63;;;;;;;;;;5033008;28;20029;-83
2022/11/20 14:32:41;;;;;;;71.90;28.67;;;;;;;;;;5032412;28;20030;-84
2022/11/20 14:35:09;;;;;;;75.63;32.50;;;;;;;;;;5030904;28;20025;-83
2022/11/20 14:37:38;;;;;;;74.73;30.47;;;;;;;;;;5031764;28;20021;-83
2022/11/20 14:40:21;;;;;;;66.83;28.40;;;;;;;;;;5033470;28;20053;-85
2022/11/20 14:42:46;;;;;;;76.17;31.03;;;;;;;;;;5032657;28;20072;-83
2022/11/20 14:45:12;;;;;;;71.93;31.50;;;;;;;;;;5031652;28;20032;-83
2022/11/20 14:47:38;;;;;;;69.77;29.20;;;;;;;;;;5031945;28;20075;-84
2022/11/20 14:50:28;;;;;;;73.77;29.93;;;;;;;;;;5033004;28;20028;-84